sensor_id;sensor_type;location;lat;lon;timestamp;temperature;humidity
18191;DHT22;47004;51.366;12.348;2023-04-28T00:01:11;7.50;99.90
18191;DHT22;47004;51.366;12.348;2023-04-28T00:03:13;7.50;99.90
18191;DHT22;47004;51.366;12.348;2023-04-28T00:05:16;7.50;99.90
18191;DHT22;47004;51.366;12.348;2023-04-28T00:07:18;7.40;99.90
18191;DHT22;47004;51.366;12.348;2023-04-28T00:09:20;7.40;99.90
18191;DHT22;47004;51.366;12.348;2023-04-28T00:11:23;7.40;99.90
18191;DHT22;47004;51.366;12.348;2023-04-28T00:13:25;7.40;99.90
18191;DHT22;47004;51.366;12.348;2023-04-28T00:15:27;7.30;99.90
18191;DHT22;47004;51.366;12.348;2023-04-28T00:17:29;7.30;99.90
18191;DHT22;47004;51.366;12.348;2023-04-28T00:19:31;7.30;99.90
18191;DHT22;47004;51.366;12.348;2023-04-28T00:21:34;7.30;99.90
18191;DHT22;47004;51.366;12.348;2023-04-28T00:23:36;7.20;99.90
18191;DHT22;47004;51.366;12.348;2023-04-28T00:25:38;7.20;99.90
18191;DHT22;47004;51.366;12.348;2023-04-28T00:27:41;7.20;99.90
18191;DHT22;47004;51.366;12.348;2023-04-28T00:29:43;7.60;99.90
18191;DHT22;47004;51.366;12.348;2023-04-28T00:31:45;7.20;99.90
18191;DHT22;47004;51.366;12.348;2023-04-28T00:33:47;7.10;99.90
18191;DHT22;47004;51.366;12.348;2023-04-28T00:35:49;7.10;99.90
18191;DHT22;47004;51.366;12.348;2023-04-28T00:37:59;7.10;99.90
18191;DHT22;47004;51.366;12.348;2023-04-28T00:40:01;7.10;99.90
18191;DHT22;47004;51.366;12.348;2023-04-28T00:42:03;7.00;99.90
18191;DHT22;47004;51.366;12.348;2023-04-28T00:44:06;7.00;99.90
18191;DHT22;47004;51.366;12.348;2023-04-28T00:46:08;7.00;99.90
18191;DHT22;47004;51.366;12.348;2023-04-28T00:48:11;7.40;99.90
18191;DHT22;47004;51.366;12.348;2023-04-28T00:50:15;6.90;99.90
18191;DHT22;47004;51.366;12.348;2023-04-28T00:52:17;7.00;99.90
18191;DHT22;47004;51.366;12.348;2023-04-28T00:54:20;6.90;99.90
18191;DHT22;47004;51.366;12.348;2023-04-28T00:56:22;6.80;99.90
18191;DHT22;47004;51.366;12.348;2023-04-28T00:58:24;6.80;99.90
18191;DHT22;47004;51.366;12.348;2023-04-28T01:00:27;6.80;99.90
18191;DHT22;47004;51.366;12.348;2023-04-28T01:02:30;6.80;99.90
18191;DHT22;47004;51.366;12.348;2023-04-28T01:04:32;6.80;99.90
18191;DHT22;47004;51.366;12.348;2023-04-28T01:06:36;6.80;99.90
18191;DHT22;47004;51.366;12.348;2023-04-28T01:08:39;7.00;99.90
18191;DHT22;47004;51.366;12.348;2023-04-28T01:10:43;6.70;99.90
18191;DHT22;47004;51.366;12.348;2023-04-28T01:12:45;6.70;99.90
18191;DHT22;47004;51.366;12.348;2023-04-28T01:14:48;6.70;99.90
18191;DHT22;47004;51.366;12.348;2023-04-28T01:16:52;6.70;99.90
18191;DHT22;47004;51.366;12.348;2023-04-28T01:18:54;6.60;99.90
18191;DHT22;47004;51.366;12.348;2023-04-28T01:20:56;6.60;99.90
18191;DHT22;47004;51.366;12.348;2023-04-28T01:22:58;6.60;99.90
18191;DHT22;47004;51.366;12.348;2023-04-28T01:25:01;6.60;99.90
18191;DHT22;47004;51.366;12.348;2023-04-28T01:27:03;6.60;99.90
18191;DHT22;47004;51.366;12.348;2023-04-28T01:29:06;6.60;99.90
18191;DHT22;47004;51.366;12.348;2023-04-28T01:31:07;6.50;99.90
18191;DHT22;47004;51.366;12.348;2023-04-28T01:33:09;6.50;99.90
18191;DHT22;47004;51.366;12.348;2023-04-28T01:35:11;6.50;99.90
18191;DHT22;47004;51.366;12.348;2023-04-28T01:37:14;6.50;99.90
18191;DHT22;47004;51.366;12.348;2023-04-28T01:39:16;6.50;99.90
18191;DHT22;47004;51.366;12.348;2023-04-28T01:41:19;6.50;99.90
18191;DHT22;47004;51.366;12.348;2023-04-28T01:43:21;6.50;99.90
18191;DHT22;47004;51.366;12.348;2023-04-28T01:45:24;6.50;99.90
18191;DHT22;47004;51.366;12.348;2023-04-28T01:47:26;6.50;99.90
18191;DHT22;47004;51.366;12.348;2023-04-28T01:49:28;6.50;99.90
18191;DHT22;47004;51.366;12.348;2023-04-28T01:51:30;6.50;99.90
18191;DHT22;47004;51.366;12.348;2023-04-28T01:53:32;6.50;99.90
18191;DHT22;47004;51.366;12.348;2023-04-28T01:55:36;6.50;99.90
18191;DHT22;47004;51.366;12.348;2023-04-28T01:57:39;6.50;99.90
18191;DHT22;47004;51.366;12.348;2023-04-28T01:59:41;6.50;99.90
18191;DHT22;47004;51.366;12.348;2023-04-28T02:01:43;6.50;99.90
18191;DHT22;47004;51.366;12.348;2023-04-28T02:03:45;6.50;99.90
18191;DHT22;47004;51.366;12.348;2023-04-28T02:05:48;6.50;99.90
18191;DHT22;47004;51.366;12.348;2023-04-28T02:07:50;6.50;99.90
18191;DHT22;47004;51.366;12.348;2023-04-28T02:09:52;6.50;99.90
18191;DHT22;47004;51.366;12.348;2023-04-28T02:11:54;6.50;99.90
18191;DHT22;47004;51.366;12.348;2023-04-28T02:13:58;6.50;99.90
18191;DHT22;47004;51.366;12.348;2023-04-28T02:16:00;6.50;99.90
18191;DHT22;47004;51.366;12.348;2023-04-28T02:18:02;6.40;99.90
18191;DHT22;47004;51.366;12.348;2023-04-28T02:20:05;6.40;99.90
18191;DHT22;47004;51.366;12.348;2023-04-28T02:22:07;6.40;99.90
18191;DHT22;47004;51.366;12.348;2023-04-28T02:24:09;6.40;99.90
18191;DHT22;47004;51.366;12.348;2023-04-28T02:26:11;6.40;99.90
18191;DHT22;47004;51.366;12.348;2023-04-28T02:28:13;6.50;99.90
18191;DHT22;47004;51.366;12.348;2023-04-28T02:30:16;6.40;99.90
18191;DHT22;47004;51.366;12.348;2023-04-28T02:32:18;6.40;99.90
18191;DHT22;47004;51.366;12.348;2023-04-28T02:34:20;6.40;99.90
18191;DHT22;47004;51.366;12.348;2023-04-28T02:36:22;6.40;99.90
18191;DHT22;47004;51.366;12.348;2023-04-28T02:38:24;6.50;99.90
18191;DHT22;47004;51.366;12.348;2023-04-28T02:40:26;6.40;99.90
18191;DHT22;47004;51.366;12.348;2023-04-28T02:42:28;6.40;99.90
18191;DHT22;47004;51.366;12.348;2023-04-28T02:44:30;6.40;99.90
18191;DHT22;47004;51.366;12.348;2023-04-28T02:46:33;6.40;99.90
18191;DHT22;47004;51.366;12.348;2023-04-28T02:48:35;6.40;99.90
18191;DHT22;47004;51.366;12.348;2023-04-28T02:50:37;6.40;99.90
18191;DHT22;47004;51.366;12.348;2023-04-28T02:52:39;6.40;99.90
18191;DHT22;47004;51.366;12.348;2023-04-28T02:54:41;6.40;99.90
18191;DHT22;47004;51.366;12.348;2023-04-28T02:56:43;6.40;99.90
18191;DHT22;47004;51.366;12.348;2023-04-28T02:58:45;6.40;99.90
18191;DHT22;47004;51.366;12.348;2023-04-28T03:00:48;6.40;99.90
18191;DHT22;47004;51.366;12.348;2023-04-28T03:02:51;6.40;99.90
18191;DHT22;47004;51.366;12.348;2023-04-28T03:04:54;6.40;99.90
18191;DHT22;47004;51.366;12.348;2023-04-28T03:06:56;6.40;99.90
18191;DHT22;47004;51.366;12.348;2023-04-28T03:08:58;6.40;99.90
18191;DHT22;47004;51.366;12.348;2023-04-28T03:10:59;6.40;99.90
18191;DHT22;47004;51.366;12.348;2023-04-28T03:13:01;6.20;99.90
18191;DHT22;47004;51.366;12.348;2023-04-28T03:15:04;6.40;99.90
18191;DHT22;47004;51.366;12.348;2023-04-28T03:17:08;6.40;99.90
18191;DHT22;47004;51.366;12.348;2023-04-28T03:19:11;6.50;99.90
18191;DHT22;47004;51.366;12.348;2023-04-28T03:21:13;6.40;99.90
18191;DHT22;47004;51.366;12.348;2023-04-28T03:23:15;6.50;99.90
18191;DHT22;47004;51.366;12.348;2023-04-28T03:25:17;6.50;99.90
18191;DHT22;47004;51.366;12.348;2023-04-28T03:27:19;6.60;99.90
18191;DHT22;47004;51.366;12.348;2023-04-28T03:29:21;6.50;99.90
18191;DHT22;47004;51.366;12.348;2023-04-28T03:31:23;6.50;99.90
18191;DHT22;47004;51.366;12.348;2023-04-28T03:33:25;6.50;99.90
18191;DHT22;47004;51.366;12.348;2023-04-28T03:35:29;6.50;99.90
18191;DHT22;47004;51.366;12.348;2023-04-28T03:37:31;6.50;99.90
18191;DHT22;47004;51.366;12.348;2023-04-28T03:39:33;6.50;99.90
18191;DHT22;47004;51.366;12.348;2023-04-28T03:41:35;6.50;99.90
18191;DHT22;47004;51.366;12.348;2023-04-28T03:43:37;6.50;99.90
18191;DHT22;47004;51.366;12.348;2023-04-28T03:45:39;6.50;99.90
18191;DHT22;47004;51.366;12.348;2023-04-28T03:47:41;6.50;99.90
18191;DHT22;47004;51.366;12.348;2023-04-28T03:49:43;6.50;99.90
18191;DHT22;47004;51.366;12.348;2023-04-28T03:51:46;6.50;99.90
18191;DHT22;47004;51.366;12.348;2023-04-28T03:53:52;6.50;99.90
18191;DHT22;47004;51.366;12.348;2023-04-28T03:55:54;6.50;99.90
18191;DHT22;47004;51.366;12.348;2023-04-28T03:57:55;6.50;99.90
18191;DHT22;47004;51.366;12.348;2023-04-28T03:59:57;6.50;99.90
18191;DHT22;47004;51.366;12.348;2023-04-28T04:02:02;6.50;99.90
18191;DHT22;47004;51.366;12.348;2023-04-28T04:04:05;6.40;99.90
18191;DHT22;47004;51.366;12.348;2023-04-28T04:06:07;6.40;99.90
18191;DHT22;47004;51.366;12.348;2023-04-28T04:08:11;6.40;99.90
18191;DHT22;47004;51.366;12.348;2023-04-28T04:10:12;6.40;99.90
18191;DHT22;47004;51.366;12.348;2023-04-28T04:12:15;6.40;99.90
18191;DHT22;47004;51.366;12.348;2023-04-28T04:14:17;6.40;99.90
18191;DHT22;47004;51.366;12.348;2023-04-28T04:16:19;6.40;99.90
18191;DHT22;47004;51.366;12.348;2023-04-28T04:18:22;6.40;99.90
18191;DHT22;47004;51.366;12.348;2023-04-28T04:20:24;6.40;99.90
18191;DHT22;47004;51.366;12.348;2023-04-28T04:22:26;6.40;99.90
18191;DHT22;47004;51.366;12.348;2023-04-28T04:24:29;6.40;99.90
18191;DHT22;47004;51.366;12.348;2023-04-28T04:26:31;6.40;99.90
18191;DHT22;47004;51.366;12.348;2023-04-28T04:28:33;6.40;99.90
18191;DHT22;47004;51.366;12.348;2023-04-28T04:30:35;6.50;99.90
18191;DHT22;47004;51.366;12.348;2023-04-28T04:32:37;6.50;99.90
18191;DHT22;47004;51.366;12.348;2023-04-28T04:34:39;6.50;99.90
18191;DHT22;47004;51.366;12.348;2023-04-28T04:36:41;6.50;99.90
18191;DHT22;47004;51.366;12.348;2023-04-28T04:38:43;6.50;99.90
18191;DHT22;47004;51.366;12.348;2023-04-28T04:40:46;6.50;99.90
18191;DHT22;47004;51.366;12.348;2023-04-28T04:42:48;6.70;99.90
18191;DHT22;47004;51.366;12.348;2023-04-28T04:44:50;6.60;99.90
18191;DHT22;47004;51.366;12.348;2023-04-28T04:46:52;6.50;99.90
18191;DHT22;47004;51.366;12.348;2023-04-28T04:48:54;6.60;99.90
18191;DHT22;47004;51.366;12.348;2023-04-28T04:50:56;6.60;99.90
18191;DHT22;47004;51.366;12.348;2023-04-28T04:52:58;6.60;99.90
18191;DHT22;47004;51.366;12.348;2023-04-28T04:55:00;6.60;99.90
18191;DHT22;47004;51.366;12.348;2023-04-28T04:57:03;6.60;99.90
18191;DHT22;47004;51.366;12.348;2023-04-28T04:59:06;6.90;99.90
18191;DHT22;47004;51.366;12.348;2023-04-28T05:01:08;6.70;99.90
18191;DHT22;47004;51.366;12.348;2023-04-28T05:03:10;6.60;99.90
18191;DHT22;47004;51.366;12.348;2023-04-28T05:05:13;6.70;99.90
18191;DHT22;47004;51.366;12.348;2023-04-28T05:07:15;6.70;99.90
18191;DHT22;47004;51.366;12.348;2023-04-28T05:09:16;6.80;99.90
18191;DHT22;47004;51.366;12.348;2023-04-28T05:11:18;6.80;99.90
18191;DHT22;47004;51.366;12.348;2023-04-28T05:13:22;6.90;99.90
18191;DHT22;47004;51.366;12.348;2023-04-28T05:15:24;6.90;99.90
18191;DHT22;47004;51.366;12.348;2023-04-28T05:17:26;7.00;99.90
18191;DHT22;47004;51.366;12.348;2023-04-28T05:19:28;7.00;99.90
18191;DHT22;47004;51.366;12.348;2023-04-28T05:21:30;7.00;99.90
18191;DHT22;47004;51.366;12.348;2023-04-28T05:23:32;7.10;99.90
18191;DHT22;47004;51.366;12.348;2023-04-28T05:25:34;7.10;99.90
18191;DHT22;47004;51.366;12.348;2023-04-28T05:27:36;7.20;99.90
18191;DHT22;47004;51.366;12.348;2023-04-28T05:29:41;7.20;99.90
18191;DHT22;47004;51.366;12.348;2023-04-28T05:31:43;7.30;99.90
18191;DHT22;47004;51.366;12.348;2023-04-28T05:33:45;7.30;99.90
18191;DHT22;47004;51.366;12.348;2023-04-28T05:35:48;7.40;99.90
18191;DHT22;47004;51.366;12.348;2023-04-28T05:37:50;7.40;99.90
18191;DHT22;47004;51.366;12.348;2023-04-28T05:39:52;7.50;99.90
18191;DHT22;47004;51.366;12.348;2023-04-28T05:41:54;7.50;99.90
18191;DHT22;47004;51.366;12.348;2023-04-28T05:43:58;7.60;99.90
18191;DHT22;47004;51.366;12.348;2023-04-28T05:46:01;7.60;99.90
18191;DHT22;47004;51.366;12.348;2023-04-28T05:48:04;7.70;99.90
18191;DHT22;47004;51.366;12.348;2023-04-28T05:50:07;7.70;99.90
18191;DHT22;47004;51.366;12.348;2023-04-28T05:52:09;7.80;99.90
18191;DHT22;47004;51.366;12.348;2023-04-28T05:54:11;7.90;99.90
18191;DHT22;47004;51.366;12.348;2023-04-28T05:56:13;8.10;99.90
18191;DHT22;47004;51.366;12.348;2023-04-28T05:58:15;8.00;99.90
18191;DHT22;47004;51.366;12.348;2023-04-28T06:00:18;8.00;99.90
18191;DHT22;47004;51.366;12.348;2023-04-28T06:02:22;8.10;99.90
18191;DHT22;47004;51.366;12.348;2023-04-28T06:04:24;8.10;99.90
18191;DHT22;47004;51.366;12.348;2023-04-28T06:06:26;8.30;99.90
18191;DHT22;47004;51.366;12.348;2023-04-28T06:08:28;8.30;99.90
18191;DHT22;47004;51.366;12.348;2023-04-28T06:10:30;8.40;99.90
18191;DHT22;47004;51.366;12.348;2023-04-28T06:12:32;8.50;99.90
18191;DHT22;47004;51.366;12.348;2023-04-28T06:14:34;8.50;99.90
18191;DHT22;47004;51.366;12.348;2023-04-28T06:16:37;8.50;99.90
18191;DHT22;47004;51.366;12.348;2023-04-28T06:18:40;8.60;99.90
18191;DHT22;47004;51.366;12.348;2023-04-28T06:20:42;8.60;99.90
18191;DHT22;47004;51.366;12.348;2023-04-28T06:22:44;8.60;99.90
18191;DHT22;47004;51.366;12.348;2023-04-28T06:24:46;8.70;99.90
18191;DHT22;47004;51.366;12.348;2023-04-28T06:26:48;8.80;99.90
18191;DHT22;47004;51.366;12.348;2023-04-28T06:28:50;8.80;99.90
18191;DHT22;47004;51.366;12.348;2023-04-28T06:30:52;8.90;99.90
18191;DHT22;47004;51.366;12.348;2023-04-28T06:32:54;8.90;99.90
18191;DHT22;47004;51.366;12.348;2023-04-28T06:34:58;9.00;99.90
18191;DHT22;47004;51.366;12.348;2023-04-28T06:37:00;9.10;99.90
18191;DHT22;47004;51.366;12.348;2023-04-28T06:39:02;9.10;99.90
18191;DHT22;47004;51.366;12.348;2023-04-28T06:41:04;9.20;99.90
18191;DHT22;47004;51.366;12.348;2023-04-28T06:43:06;9.30;99.90
18191;DHT22;47004;51.366;12.348;2023-04-28T06:45:09;9.40;99.90
18191;DHT22;47004;51.366;12.348;2023-04-28T06:47:11;9.40;99.90
18191;DHT22;47004;51.366;12.348;2023-04-28T06:49:13;9.50;99.90
18191;DHT22;47004;51.366;12.348;2023-04-28T06:51:16;9.60;99.90
18191;DHT22;47004;51.366;12.348;2023-04-28T06:53:18;9.70;99.90
18191;DHT22;47004;51.366;12.348;2023-04-28T06:55:20;9.70;99.90
18191;DHT22;47004;51.366;12.348;2023-04-28T06:57:23;9.90;99.90
18191;DHT22;47004;51.366;12.348;2023-04-28T06:59:25;9.90;99.90
18191;DHT22;47004;51.366;12.348;2023-04-28T07:01:27;10.00;99.90
18191;DHT22;47004;51.366;12.348;2023-04-28T07:03:28;10.10;99.90
18191;DHT22;47004;51.366;12.348;2023-04-28T07:05:31;10.20;99.90
18191;DHT22;47004;51.366;12.348;2023-04-28T07:07:35;10.30;99.90
18191;DHT22;47004;51.366;12.348;2023-04-28T07:09:38;10.40;99.90
18191;DHT22;47004;51.366;12.348;2023-04-28T07:11:40;10.50;99.90
18191;DHT22;47004;51.366;12.348;2023-04-28T07:13:42;10.50;99.90
18191;DHT22;47004;51.366;12.348;2023-04-28T07:15:45;10.60;99.90
18191;DHT22;47004;51.366;12.348;2023-04-28T07:17:47;10.70;99.90
18191;DHT22;47004;51.366;12.348;2023-04-28T07:19:49;10.70;99.90
18191;DHT22;47004;51.366;12.348;2023-04-28T07:21:51;10.80;99.90
18191;DHT22;47004;51.366;12.348;2023-04-28T07:23:55;10.80;99.90
18191;DHT22;47004;51.366;12.348;2023-04-28T07:25:57;10.90;99.90
18191;DHT22;47004;51.366;12.348;2023-04-28T07:28:01;10.90;99.90
18191;DHT22;47004;51.366;12.348;2023-04-28T07:30:06;11.00;99.90
18191;DHT22;47004;51.366;12.348;2023-04-28T07:32:09;11.10;99.90
18191;DHT22;47004;51.366;12.348;2023-04-28T07:34:11;11.10;99.90
18191;DHT22;47004;51.366;12.348;2023-04-28T07:36:13;11.20;99.90
18191;DHT22;47004;51.366;12.348;2023-04-28T07:38:14;11.30;99.90
18191;DHT22;47004;51.366;12.348;2023-04-28T07:40:19;11.30;99.90
18191;DHT22;47004;51.366;12.348;2023-04-28T07:42:21;11.40;99.90
18191;DHT22;47004;51.366;12.348;2023-04-28T07:44:23;11.50;99.90
18191;DHT22;47004;51.366;12.348;2023-04-28T07:46:25;11.60;99.90
18191;DHT22;47004;51.366;12.348;2023-04-28T07:48:28;11.60;99.90
18191;DHT22;47004;51.366;12.348;2023-04-28T07:50:29;11.70;99.90
18191;DHT22;47004;51.366;12.348;2023-04-28T07:52:34;11.80;99.90
18191;DHT22;47004;51.366;12.348;2023-04-28T07:54:35;11.90;99.90
18191;DHT22;47004;51.366;12.348;2023-04-28T07:56:39;12.00;99.90
18191;DHT22;47004;51.366;12.348;2023-04-28T07:58:41;12.10;99.90
18191;DHT22;47004;51.366;12.348;2023-04-28T08:00:43;12.10;99.90
18191;DHT22;47004;51.366;12.348;2023-04-28T08:02:45;12.30;99.90
18191;DHT22;47004;51.366;12.348;2023-04-28T08:04:47;12.40;99.90
18191;DHT22;47004;51.366;12.348;2023-04-28T08:06:48;12.50;99.90
18191;DHT22;47004;51.366;12.348;2023-04-28T08:08:50;12.60;99.90
18191;DHT22;47004;51.366;12.348;2023-04-28T08:10:52;12.70;99.90
18191;DHT22;47004;51.366;12.348;2023-04-28T08:12:56;12.80;99.90
18191;DHT22;47004;51.366;12.348;2023-04-28T08:14:58;12.90;99.90
18191;DHT22;47004;51.366;12.348;2023-04-28T08:17:00;13.00;99.90
18191;DHT22;47004;51.366;12.348;2023-04-28T08:19:02;13.10;99.90
18191;DHT22;47004;51.366;12.348;2023-04-28T08:21:04;13.10;99.90
18191;DHT22;47004;51.366;12.348;2023-04-28T08:23:06;13.20;99.90
18191;DHT22;47004;51.366;12.348;2023-04-28T08:25:08;13.20;99.90
18191;DHT22;47004;51.366;12.348;2023-04-28T08:27:10;13.30;99.90
18191;DHT22;47004;51.366;12.348;2023-04-28T08:29:14;13.30;99.90
18191;DHT22;47004;51.366;12.348;2023-04-28T08:31:16;13.30;99.90
18191;DHT22;47004;51.366;12.348;2023-04-28T08:33:17;13.40;99.90
18191;DHT22;47004;51.366;12.348;2023-04-28T08:35:19;13.40;99.90
18191;DHT22;47004;51.366;12.348;2023-04-28T08:37:21;13.50;99.90
18191;DHT22;47004;51.366;12.348;2023-04-28T08:39:24;13.50;99.90
18191;DHT22;47004;51.366;12.348;2023-04-28T08:41:26;13.60;99.90
18191;DHT22;47004;51.366;12.348;2023-04-28T08:43:31;13.60;99.90
18191;DHT22;47004;51.366;12.348;2023-04-28T08:45:40;13.60;99.90
18191;DHT22;47004;51.366;12.348;2023-04-28T08:47:42;13.60;99.90
18191;DHT22;47004;51.366;12.348;2023-04-28T08:49:48;13.60;99.90
18191;DHT22;47004;51.366;12.348;2023-04-28T08:51:54;13.60;99.90
18191;DHT22;47004;51.366;12.348;2023-04-28T08:53:58;13.70;99.90
18191;DHT22;47004;51.366;12.348;2023-04-28T08:56:05;13.70;99.90
18191;DHT22;47004;51.366;12.348;2023-04-28T08:58:08;13.60;99.90
18191;DHT22;47004;51.366;12.348;2023-04-28T09:00:11;13.60;99.90
18191;DHT22;47004;51.366;12.348;2023-04-28T09:02:14;13.50;99.90
18191;DHT22;47004;51.366;12.348;2023-04-28T09:04:19;13.50;99.90
18191;DHT22;47004;51.366;12.348;2023-04-28T09:06:21;13.50;99.90
18191;DHT22;47004;51.366;12.348;2023-04-28T09:08:23;13.40;99.90
18191;DHT22;47004;51.366;12.348;2023-04-28T09:10:25;13.40;99.90
18191;DHT22;47004;51.366;12.348;2023-04-28T09:12:35;13.40;99.90
18191;DHT22;47004;51.366;12.348;2023-04-28T09:14:38;13.40;99.90
18191;DHT22;47004;51.366;12.348;2023-04-28T09:16:40;13.40;99.90
18191;DHT22;47004;51.366;12.348;2023-04-28T09:18:55;13.40;99.90
18191;DHT22;47004;51.366;12.348;2023-04-28T09:21:04;13.40;99.90
18191;DHT22;47004;51.366;12.348;2023-04-28T09:23:14;13.40;99.90
18191;DHT22;47004;51.366;12.348;2023-04-28T09:25:17;13.40;99.90
18191;DHT22;47004;51.366;12.348;2023-04-28T09:27:26;13.30;99.90
18191;DHT22;47004;51.366;12.348;2023-04-28T09:29:28;13.30;99.90
18191;DHT22;47004;51.366;12.348;2023-04-28T09:31:30;13.20;99.90
18191;DHT22;47004;51.366;12.348;2023-04-28T09:33:34;13.20;99.90
18191;DHT22;47004;51.366;12.348;2023-04-28T09:35:41;13.10;99.90
18191;DHT22;47004;51.366;12.348;2023-04-28T09:37:44;13.20;99.90
18191;DHT22;47004;51.366;12.348;2023-04-28T09:39:48;13.20;99.90
18191;DHT22;47004;51.366;12.348;2023-04-28T09:41:53;13.20;99.90
18191;DHT22;47004;51.366;12.348;2023-04-28T09:44:09;13.10;99.90
18191;DHT22;47004;51.366;12.348;2023-04-28T09:46:11;13.10;99.90
18191;DHT22;47004;51.366;12.348;2023-04-28T09:48:13;13.00;99.90
18191;DHT22;47004;51.366;12.348;2023-04-28T09:50:15;12.90;99.90
18191;DHT22;47004;51.366;12.348;2023-04-28T09:52:19;12.90;99.90
18191;DHT22;47004;51.366;12.348;2023-04-28T09:54:21;12.90;99.90
18191;DHT22;47004;51.366;12.348;2023-04-28T09:56:25;12.90;99.90
18191;DHT22;47004;51.366;12.348;2023-04-28T09:58:28;12.90;99.90
18191;DHT22;47004;51.366;12.348;2023-04-28T10:00:32;13.00;99.90
18191;DHT22;47004;51.366;12.348;2023-04-28T10:02:36;13.10;99.90
18191;DHT22;47004;51.366;12.348;2023-04-28T10:04:39;13.10;99.90
18191;DHT22;47004;51.366;12.348;2023-04-28T10:06:41;13.10;99.90
18191;DHT22;47004;51.366;12.348;2023-04-28T10:08:47;13.10;99.90
18191;DHT22;47004;51.366;12.348;2023-04-28T10:10:52;13.10;99.90
18191;DHT22;47004;51.366;12.348;2023-04-28T10:12:54;13.10;99.90
18191;DHT22;47004;51.366;12.348;2023-04-28T10:14:57;13.00;99.90
18191;DHT22;47004;51.366;12.348;2023-04-28T10:17:00;13.00;99.90
18191;DHT22;47004;51.366;12.348;2023-04-28T10:19:03;12.90;99.90
18191;DHT22;47004;51.366;12.348;2023-04-28T10:21:07;12.90;99.90
18191;DHT22;47004;51.366;12.348;2023-04-28T10:25:41;12.90;99.90
18191;DHT22;47004;51.366;12.348;2023-04-28T10:27:45;12.90;99.90
18191;DHT22;47004;51.366;12.348;2023-04-28T10:29:47;13.00;99.90
18191;DHT22;47004;51.366;12.348;2023-04-28T10:32:14;13.10;99.90
18191;DHT22;47004;51.366;12.348;2023-04-28T10:34:21;13.10;99.90
18191;DHT22;47004;51.366;12.348;2023-04-28T10:36:45;13.20;99.90
18191;DHT22;47004;51.366;12.348;2023-04-28T10:39:09;13.20;99.90
18191;DHT22;47004;51.366;12.348;2023-04-28T10:41:34;13.30;99.90
18191;DHT22;47004;51.366;12.348;2023-04-28T10:43:37;13.30;99.90
18191;DHT22;47004;51.366;12.348;2023-04-28T10:46:02;13.40;99.90
18191;DHT22;47004;51.366;12.348;2023-04-28T10:48:07;13.40;99.90
18191;DHT22;47004;51.366;12.348;2023-04-28T10:50:09;13.40;99.90
18191;DHT22;47004;51.366;12.348;2023-04-28T10:57:20;13.20;99.90
18191;DHT22;47004;51.366;12.348;2023-04-28T10:59:25;13.10;99.90
18191;DHT22;47004;51.366;12.348;2023-04-28T11:01:29;13.10;99.90
18191;DHT22;47004;51.366;12.348;2023-04-28T11:03:45;13.00;99.90
18191;DHT22;47004;51.366;12.348;2023-04-28T11:06:17;13.00;99.90
18191;DHT22;47004;51.366;12.348;2023-04-28T11:08:35;12.90;99.90
18191;DHT22;47004;51.366;12.348;2023-04-28T11:13:26;12.80;99.90
18191;DHT22;47004;51.366;12.348;2023-04-28T11:15:31;12.80;99.90
18191;DHT22;47004;51.366;12.348;2023-04-28T11:17:39;12.80;99.90
18191;DHT22;47004;51.366;12.348;2023-04-28T11:19:43;12.80;99.90
18191;DHT22;47004;51.366;12.348;2023-04-28T11:21:46;12.80;99.90
18191;DHT22;47004;51.366;12.348;2023-04-28T11:23:48;12.80;99.90
18191;DHT22;47004;51.366;12.348;2023-04-28T11:25:53;12.80;99.90
18191;DHT22;47004;51.366;12.348;2023-04-28T11:28:02;12.80;99.90
18191;DHT22;47004;51.366;12.348;2023-04-28T11:30:20;12.80;99.90
18191;DHT22;47004;51.366;12.348;2023-04-28T11:32:26;12.80;99.90
18191;DHT22;47004;51.366;12.348;2023-04-28T11:34:28;12.90;99.90
18191;DHT22;47004;51.366;12.348;2023-04-28T11:36:33;12.90;99.90
18191;DHT22;47004;51.366;12.348;2023-04-28T11:38:42;13.00;99.90
18191;DHT22;47004;51.366;12.348;2023-04-28T11:40:55;13.00;99.90
18191;DHT22;47004;51.366;12.348;2023-04-28T11:42:57;13.10;99.90
18191;DHT22;47004;51.366;12.348;2023-04-28T11:45:00;13.10;99.90
18191;DHT22;47004;51.366;12.348;2023-04-28T11:47:05;13.10;99.90
18191;DHT22;47004;51.366;12.348;2023-04-28T11:49:07;13.10;99.90
18191;DHT22;47004;51.366;12.348;2023-04-28T11:51:09;13.10;99.90
18191;DHT22;47004;51.366;12.348;2023-04-28T11:53:11;13.20;99.90
18191;DHT22;47004;51.366;12.348;2023-04-28T11:55:15;13.20;99.90
18191;DHT22;47004;51.366;12.348;2023-04-28T11:57:19;13.30;99.90
18191;DHT22;47004;51.366;12.348;2023-04-28T11:59:23;13.40;99.90
18191;DHT22;47004;51.366;12.348;2023-04-28T12:01:28;13.50;99.90
18191;DHT22;47004;51.366;12.348;2023-04-28T12:03:31;13.60;99.90
18191;DHT22;47004;51.366;12.348;2023-04-28T12:05:33;13.80;99.90
18191;DHT22;47004;51.366;12.348;2023-04-28T12:07:40;13.90;99.90
18191;DHT22;47004;51.366;12.348;2023-04-28T12:09:44;14.20;99.90
18191;DHT22;47004;51.366;12.348;2023-04-28T12:11:55;14.40;99.90
18191;DHT22;47004;51.366;12.348;2023-04-28T12:14:07;14.70;99.90
18191;DHT22;47004;51.366;12.348;2023-04-28T12:16:10;15.00;99.90
18191;DHT22;47004;51.366;12.348;2023-04-28T12:18:14;15.30;99.90
18191;DHT22;47004;51.366;12.348;2023-04-28T12:20:36;15.50;99.90
18191;DHT22;47004;51.366;12.348;2023-04-28T12:22:44;15.60;99.90
18191;DHT22;47004;51.366;12.348;2023-04-28T12:25:04;15.60;99.90
18191;DHT22;47004;51.366;12.348;2023-04-28T12:27:17;15.60;99.90
18191;DHT22;47004;51.366;12.348;2023-04-28T12:29:37;15.60;99.90
18191;DHT22;47004;51.366;12.348;2023-04-28T12:31:49;15.50;99.90
18191;DHT22;47004;51.366;12.348;2023-04-28T12:33:52;15.50;99.90
18191;DHT22;47004;51.366;12.348;2023-04-28T12:35:56;15.50;99.90
18191;DHT22;47004;51.366;12.348;2023-04-28T12:37:59;15.50;99.90
18191;DHT22;47004;51.366;12.348;2023-04-28T12:40:01;15.50;99.90
18191;DHT22;47004;51.366;12.348;2023-04-28T12:42:04;15.50;99.90
18191;DHT22;47004;51.366;12.348;2023-04-28T12:44:06;15.50;99.90
18191;DHT22;47004;51.366;12.348;2023-04-28T12:46:08;15.40;99.90
18191;DHT22;47004;51.366;12.348;2023-04-28T12:48:11;15.40;99.90
18191;DHT22;47004;51.366;12.348;2023-04-28T12:50:12;15.30;99.90
18191;DHT22;47004;51.366;12.348;2023-04-28T12:52:16;15.30;99.90
18191;DHT22;47004;51.366;12.348;2023-04-28T12:54:17;15.30;99.90
18191;DHT22;47004;51.366;12.348;2023-04-28T12:56:19;15.30;99.90
18191;DHT22;47004;51.366;12.348;2023-04-28T12:58:23;15.30;99.90
18191;DHT22;47004;51.366;12.348;2023-04-28T13:00:25;15.30;99.90
18191;DHT22;47004;51.366;12.348;2023-04-28T13:02:27;15.30;99.90
18191;DHT22;47004;51.366;12.348;2023-04-28T13:04:29;15.30;99.90
18191;DHT22;47004;51.366;12.348;2023-04-28T13:06:31;15.30;99.90